Terminal Aerodrome Forecast
Issued by NWS Grand Forks, ND

Home | Current Version | Previous Version | Text Only | Print | Product List | Glossary Off
Versions: 1 2 3 4 5 6 7 8 9 10 11 12 13

000
FTUS43 KFGF 181700
TAFFAR
TAF
KFAR 181720Z 1818/1918 14013KT P6SM BKN060
     FM181900 13020G27KT P6SM OVC060
     FM182100 14025G32KT P6SM OVC050
     FM190300 15019KT P6SM OVC040
     FM191200 20011KT P6SM BKN030
     FM191500 24013KT P6SM SCT050=

USA.gov is the U.S. government's official web portal to all federal, state and local government web resources and services.